sensor_id;sensor_type;location;lat;lon;timestamp;pressure;altitude;pressure_sealevel;temperature;humidity
49341;BME280;35209;51.050;13.678;2023-02-16T00:00:58;100834.91;;;-0.25;100.00
49341;BME280;35209;51.050;13.678;2023-02-16T00:06:00;100833.31;;;-0.20;100.00
49341;BME280;35209;51.050;13.678;2023-02-16T00:11:02;100847.94;;;-0.54;100.00
49341;BME280;35209;51.050;13.678;2023-02-16T00:16:23;100836.44;;;-0.66;100.00
49341;BME280;35209;51.050;13.678;2023-02-16T00:21:25;100834.91;;;-0.58;100.00
49341;BME280;35209;51.050;13.678;2023-02-16T00:26:28;100838.53;;;-0.52;100.00
49341;BME280;35209;51.050;13.678;2023-02-16T00:31:31;100846.81;;;-0.63;100.00
49341;BME280;35209;51.050;13.678;2023-02-16T00:36:33;100842.38;;;-0.69;100.00
49341;BME280;35209;51.050;13.678;2023-02-16T00:41:35;100835.94;;;-0.53;100.00
49341;BME280;35209;51.050;13.678;2023-02-16T00:46:52;100827.13;;;-0.27;100.00
49341;BME280;35209;51.050;13.678;2023-02-16T00:51:54;100829.72;;;-0.27;100.00
49341;BME280;35209;51.050;13.678;2023-02-16T00:56:56;100837.31;;;-0.66;100.00
49341;BME280;35209;51.050;13.678;2023-02-16T01:01:58;100827.38;;;-0.84;100.00
49341;BME280;35209;51.050;13.678;2023-02-16T01:07:00;100828.41;;;-0.76;100.00
49341;BME280;35209;51.050;13.678;2023-02-16T01:12:20;100825.84;;;-0.76;100.00
49341;BME280;35209;51.050;13.678;2023-02-16T01:17:23;100817.28;;;-1.06;100.00
49341;BME280;35209;51.050;13.678;2023-02-16T01:22:27;100818.97;;;-1.07;100.00
49341;BME280;35209;51.050;13.678;2023-02-16T01:27:36;100808.72;;;-1.05;100.00
49341;BME280;35209;51.050;13.678;2023-02-16T01:32:39;100818.16;;;-1.36;100.00
49341;BME280;35209;51.050;13.678;2023-02-16T01:37:41;100807.59;;;-1.45;100.00
49341;BME280;35209;51.050;13.678;2023-02-16T01:42:50;100802.69;;;-1.36;100.00
49341;BME280;35209;51.050;13.678;2023-02-16T01:47:57;100798.13;;;-1.14;100.00
49341;BME280;35209;51.050;13.678;2023-02-16T01:53:21;100802.94;;;-1.27;100.00
49341;BME280;35209;51.050;13.678;2023-02-16T01:58:42;100798.38;;;-1.05;100.00
49341;BME280;35209;51.050;13.678;2023-02-16T02:03:46;100798.75;;;-1.23;100.00
49341;BME280;35209;51.050;13.678;2023-02-16T02:09:15;100787.69;;;-1.49;100.00
49341;BME280;35209;51.050;13.678;2023-02-16T02:14:29;100786.44;;;-1.63;100.00
49341;BME280;35209;51.050;13.678;2023-02-16T02:35:52;100792.84;;;-1.49;100.00
49341;BME280;35209;51.050;13.678;2023-02-16T02:41:17;100791.75;;;-1.57;100.00
49341;BME280;35209;51.050;13.678;2023-02-16T02:46:27;100787.38;;;-1.60;100.00
49341;BME280;35209;51.050;13.678;2023-02-16T02:51:30;100776.13;;;-1.63;100.00
49341;BME280;35209;51.050;13.678;2023-02-16T02:56:42;100772.75;;;-1.89;100.00
49341;BME280;35209;51.050;13.678;2023-02-16T03:02:04;100761.34;;;-1.97;100.00
49341;BME280;35209;51.050;13.678;2023-02-16T03:07:07;100765.53;;;-1.72;100.00
49341;BME280;35209;51.050;13.678;2023-02-16T03:12:11;100777.78;;;-1.94;100.00
49341;BME280;35209;51.050;13.678;2023-02-16T03:17:34;100781.66;;;-1.78;100.00
49341;BME280;35209;51.050;13.678;2023-02-16T03:22:56;100782.97;;;-1.92;100.00
49341;BME280;35209;51.050;13.678;2023-02-16T03:28:18;100782.03;;;-1.37;100.00
49341;BME280;35209;51.050;13.678;2023-02-16T03:33:40;100780.41;;;-1.64;100.00
49341;BME280;35209;51.050;13.678;2023-02-16T03:38:42;100787.56;;;-1.54;100.00
49341;BME280;35209;51.050;13.678;2023-02-16T03:43:43;100786.19;;;-1.71;100.00
49341;BME280;35209;51.050;13.678;2023-02-16T03:48:45;100789.28;;;-1.54;100.00
49341;BME280;35209;51.050;13.678;2023-02-16T03:53:47;100798.00;;;-1.78;100.00
49341;BME280;35209;51.050;13.678;2023-02-16T03:58:48;100788.47;;;-1.52;100.00
49341;BME280;35209;51.050;13.678;2023-02-16T04:03:50;100775.31;;;-1.61;100.00
49341;BME280;35209;51.050;13.678;2023-02-16T04:08:52;100780.53;;;-1.59;100.00
49341;BME280;35209;51.050;13.678;2023-02-16T04:13:55;100789.47;;;-1.76;100.00
49341;BME280;35209;51.050;13.678;2023-02-16T04:18:56;100781.75;;;-1.76;100.00
49341;BME280;35209;51.050;13.678;2023-02-16T04:23:58;100785.56;;;-1.64;100.00
49341;BME280;35209;51.050;13.678;2023-02-16T04:29:00;100784.63;;;-1.94;100.00
49341;BME280;35209;51.050;13.678;2023-02-16T04:34:02;100778.19;;;-1.80;100.00
49341;BME280;35209;51.050;13.678;2023-02-16T04:39:03;100774.13;;;-2.00;100.00
49341;BME280;35209;51.050;13.678;2023-02-16T04:44:05;100771.16;;;-1.86;100.00
49341;BME280;35209;51.050;13.678;2023-02-16T04:49:07;100755.50;;;-1.92;100.00
49341;BME280;35209;51.050;13.678;2023-02-16T04:54:09;100766.53;;;-1.96;100.00
49341;BME280;35209;51.050;13.678;2023-02-16T04:59:11;100762.56;;;-2.13;100.00
49341;BME280;35209;51.050;13.678;2023-02-16T05:04:13;100763.75;;;-2.04;100.00
49341;BME280;35209;51.050;13.678;2023-02-16T05:09:14;100773.91;;;-1.80;100.00
49341;BME280;35209;51.050;13.678;2023-02-16T05:14:22;100769.09;;;-1.96;100.00
49341;BME280;35209;51.050;13.678;2023-02-16T05:19:45;100769.06;;;-1.69;100.00
49341;BME280;35209;51.050;13.678;2023-02-16T05:24:48;100773.13;;;-1.77;100.00
49341;BME280;35209;51.050;13.678;2023-02-16T05:29:50;100780.34;;;-1.65;100.00
49341;BME280;35209;51.050;13.678;2023-02-16T05:34:52;100787.53;;;-1.84;100.00
49341;BME280;35209;51.050;13.678;2023-02-16T05:39:53;100782.78;;;-1.98;100.00
49341;BME280;35209;51.050;13.678;2023-02-16T05:44:55;100789.19;;;-1.86;100.00
49341;BME280;35209;51.050;13.678;2023-02-16T05:49:57;100793.44;;;-1.86;100.00
49341;BME280;35209;51.050;13.678;2023-02-16T05:54:59;100795.13;;;-1.88;100.00
49341;BME280;35209;51.050;13.678;2023-02-16T06:00:01;100788.28;;;-1.86;100.00
49341;BME280;35209;51.050;13.678;2023-02-16T06:05:05;100799.19;;;-1.95;100.00
49341;BME280;35209;51.050;13.678;2023-02-16T06:10:07;100804.97;;;-2.04;100.00
49341;BME280;35209;51.050;13.678;2023-02-16T06:15:10;100799.75;;;-2.05;100.00
49341;BME280;35209;51.050;13.678;2023-02-16T06:20:12;100798.63;;;-2.13;100.00
49341;BME280;35209;51.050;13.678;2023-02-16T06:25:14;100791.53;;;-1.93;100.00
49341;BME280;35209;51.050;13.678;2023-02-16T06:30:15;100792.28;;;-1.96;100.00
49341;BME280;35209;51.050;13.678;2023-02-16T06:35:17;100793.91;;;-1.99;100.00
49341;BME280;35209;51.050;13.678;2023-02-16T06:40:19;100803.03;;;-2.09;100.00
49341;BME280;35209;51.050;13.678;2023-02-16T06:45:21;100797.50;;;-2.21;100.00
49341;BME280;35209;51.050;13.678;2023-02-16T06:50:23;100794.38;;;-1.84;100.00
49341;BME280;35209;51.050;13.678;2023-02-16T06:55:25;100792.22;;;-1.70;100.00
49341;BME280;35209;51.050;13.678;2023-02-16T07:00:27;100790.44;;;-1.43;100.00
49341;BME280;35209;51.050;13.678;2023-02-16T07:05:30;100789.28;;;-1.54;100.00
49341;BME280;35209;51.050;13.678;2023-02-16T07:10:31;100787.38;;;-1.60;100.00
49341;BME280;35209;51.050;13.678;2023-02-16T07:15:49;100783.03;;;-1.32;100.00
49341;BME280;35209;51.050;13.678;2023-02-16T07:20:51;100768.94;;;-1.12;100.00
49341;BME280;35209;51.050;13.678;2023-02-16T07:25:53;100770.94;;;-1.33;100.00
49341;BME280;35209;51.050;13.678;2023-02-16T07:30:55;100772.72;;;-1.32;100.00
49341;BME280;35209;51.050;13.678;2023-02-16T07:35:57;100785.03;;;-1.22;100.00
49341;BME280;35209;51.050;13.678;2023-02-16T07:40:59;100799.34;;;-1.02;100.00
49341;BME280;35209;51.050;13.678;2023-02-16T07:46:00;100807.59;;;-0.83;100.00
49341;BME280;35209;51.050;13.678;2023-02-16T07:51:03;100798.34;;;-0.75;100.00
49341;BME280;35209;51.050;13.678;2023-02-16T07:56:05;100792.78;;;-0.57;100.00
49341;BME280;35209;51.050;13.678;2023-02-16T08:01:09;100792.41;;;-0.36;100.00
49341;BME280;35209;51.050;13.678;2023-02-16T08:06:12;100794.19;;;0.03;100.00
49341;BME280;35209;51.050;13.678;2023-02-16T08:16:23;100809.91;;;0.49;100.00
49341;BME280;35209;51.050;13.678;2023-02-16T08:21:31;100809.25;;;0.60;100.00
49341;BME280;35209;51.050;13.678;2023-02-16T08:26:36;100803.47;;;0.71;99.87
49341;BME280;35209;51.050;13.678;2023-02-16T08:31:38;100801.78;;;0.75;99.38
49341;BME280;35209;51.050;13.678;2023-02-16T08:36:42;100799.56;;;1.39;93.12
49341;BME280;35209;51.050;13.678;2023-02-16T08:41:46;100796.84;;;1.31;93.64
49341;BME280;35209;51.050;13.678;2023-02-16T08:46:49;100790.88;;;1.35;94.15
49341;BME280;35209;51.050;13.678;2023-02-16T08:51:53;100787.31;;;1.80;90.71
49341;BME280;35209;51.050;13.678;2023-02-16T08:56:57;100785.28;;;2.18;88.79
49341;BME280;35209;51.050;13.678;2023-02-16T09:02:00;100785.25;;;2.17;89.88
49341;BME280;35209;51.050;13.678;2023-02-16T09:07:02;100782.13;;;2.39;88.55
49341;BME280;35209;51.050;13.678;2023-02-16T09:12:04;100779.63;;;2.47;89.03
49341;BME280;35209;51.050;13.678;2023-02-16T09:17:06;100772.97;;;2.67;88.80
49341;BME280;35209;51.050;13.678;2023-02-16T09:22:07;100772.41;;;2.93;89.15
49341;BME280;35209;51.050;13.678;2023-02-16T09:27:09;100778.97;;;3.44;84.46
49341;BME280;35209;51.050;13.678;2023-02-16T09:32:11;100772.22;;;3.67;83.16
49341;BME280;35209;51.050;13.678;2023-02-16T09:37:15;100769.50;;;3.50;85.45
49341;BME280;35209;51.050;13.678;2023-02-16T09:47:30;100765.59;;;4.09;81.60
49341;BME280;35209;51.050;13.678;2023-02-16T09:52:37;100765.47;;;3.94;82.14
49341;BME280;35209;51.050;13.678;2023-02-16T10:03:24;100766.44;;;4.07;82.86
49341;BME280;35209;51.050;13.678;2023-02-16T10:13:49;100769.06;;;4.11;82.91
49341;BME280;35209;51.050;13.678;2023-02-16T10:18:55;100766.53;;;4.20;82.81
49341;BME280;35209;51.050;13.678;2023-02-16T10:24:02;100775.38;;;4.53;80.98
49341;BME280;35209;51.050;13.678;2023-02-16T10:29:09;100764.28;;;4.97;79.05
49341;BME280;35209;51.050;13.678;2023-02-16T10:34:20;100750.44;;;5.33;77.61
49341;BME280;35209;51.050;13.678;2023-02-16T10:39:32;100757.41;;;5.89;74.75
49341;BME280;35209;51.050;13.678;2023-02-16T10:44:38;100752.88;;;6.65;71.89
49341;BME280;35209;51.050;13.678;2023-02-16T10:49:44;100744.72;;;7.23;70.15
49341;BME280;35209;51.050;13.678;2023-02-16T10:54:48;100721.47;;;7.88;67.99
49341;BME280;35209;51.050;13.678;2023-02-16T10:59:49;100718.63;;;8.86;63.65
49341;BME280;35209;51.050;13.678;2023-02-16T11:04:53;100716.19;;;9.32;61.67
49341;BME280;35209;51.050;13.678;2023-02-16T11:09:57;100727.78;;;9.72;58.51
49341;BME280;35209;51.050;13.678;2023-02-16T11:20:29;100721.75;;;10.15;57.75
49341;BME280;35209;51.050;13.678;2023-02-16T11:25:32;100719.84;;;10.68;57.99
49341;BME280;35209;51.050;13.678;2023-02-16T11:30:39;100694.16;;;11.53;51.88
49341;BME280;35209;51.050;13.678;2023-02-16T11:35:43;100698.00;;;12.08;52.06
49341;BME280;35209;51.050;13.678;2023-02-16T11:40:50;100690.34;;;12.61;49.57
49341;BME280;35209;51.050;13.678;2023-02-16T11:46:18;100685.19;;;13.14;48.92
49341;BME280;35209;51.050;13.678;2023-02-16T11:51:33;100682.50;;;13.44;48.37
49341;BME280;35209;51.050;13.678;2023-02-16T11:56:35;100673.00;;;14.15;46.92
49341;BME280;35209;51.050;13.678;2023-02-16T12:12:44;100668.28;;;12.94;49.47
49341;BME280;35209;51.050;13.678;2023-02-16T12:23:13;100661.22;;;12.66;47.16
49341;BME280;35209;51.050;13.678;2023-02-16T12:28:37;100650.69;;;12.35;47.53
49341;BME280;35209;51.050;13.678;2023-02-16T12:44:22;100635.22;;;11.93;48.06
49341;BME280;35209;51.050;13.678;2023-02-16T12:55:05;100624.25;;;11.43;50.24
49341;BME280;35209;51.050;13.678;2023-02-16T13:00:28;100623.50;;;11.38;50.32
49341;BME280;35209;51.050;13.678;2023-02-16T13:05:36;100622.41;;;11.47;52.71
49341;BME280;35209;51.050;13.678;2023-02-16T13:11:02;100613.78;;;11.40;51.61
49341;BME280;35209;51.050;13.678;2023-02-16T13:27:14;100595.91;;;11.53;50.33
49341;BME280;35209;51.050;13.678;2023-02-16T13:32:42;100604.59;;;11.22;49.79
49341;BME280;35209;51.050;13.678;2023-02-16T13:43:25;100593.09;;;11.59;47.86
49341;BME280;35209;51.050;13.678;2023-02-16T13:48:44;100594.91;;;11.57;47.34
49341;BME280;35209;51.050;13.678;2023-02-16T13:58:52;100596.69;;;11.56;46.54
49341;BME280;35209;51.050;13.678;2023-02-16T14:03:54;100596.25;;;11.39;46.86
49341;BME280;35209;51.050;13.678;2023-02-16T14:24:58;100612.47;;;11.22;47.27
49341;BME280;35209;51.050;13.678;2023-02-16T14:30:01;100612.66;;;11.15;48.33
49341;BME280;35209;51.050;13.678;2023-02-16T14:40:37;100624.25;;;10.70;49.79
49341;BME280;35209;51.050;13.678;2023-02-16T14:56:53;100623.72;;;10.13;52.05
49341;BME280;35209;51.050;13.678;2023-02-16T15:02:00;100621.03;;;10.16;52.09
49341;BME280;35209;51.050;13.678;2023-02-16T15:07:23;100618.75;;;9.99;54.52
49341;BME280;35209;51.050;13.678;2023-02-16T15:12:29;100624.16;;;9.45;56.91
49341;BME280;35209;51.050;13.678;2023-02-16T15:17:44;100618.97;;;9.40;57.26
49341;BME280;35209;51.050;13.678;2023-02-16T15:22:54;100608.84;;;8.65;60.12
49341;BME280;35209;51.050;13.678;2023-02-16T15:28:14;100609.72;;;8.62;60.26
49341;BME280;35209;51.050;13.678;2023-02-16T15:38:26;100607.19;;;7.90;64.01
49341;BME280;35209;51.050;13.678;2023-02-16T15:48:36;100603.53;;;7.17;67.92
49341;BME280;35209;51.050;13.678;2023-02-16T15:53:50;100606.66;;;7.55;66.88
49341;BME280;35209;51.050;13.678;2023-02-16T15:58:54;100609.81;;;6.94;69.36
49341;BME280;35209;51.050;13.678;2023-02-16T16:03:56;100606.59;;;6.62;71.26
49341;BME280;35209;51.050;13.678;2023-02-16T16:08:58;100606.75;;;6.34;72.80
49341;BME280;35209;51.050;13.678;2023-02-16T16:14:02;100607.69;;;6.18;73.80
49341;BME280;35209;51.050;13.678;2023-02-16T16:19:14;100606.72;;;6.40;74.04
49341;BME280;35209;51.050;13.678;2023-02-16T16:24:34;100607.66;;;6.27;72.80
49341;BME280;35209;51.050;13.678;2023-02-16T16:29:41;100613.88;;;5.88;74.63
49341;BME280;35209;51.050;13.678;2023-02-16T16:34:44;100607.84;;;5.76;74.98
49341;BME280;35209;51.050;13.678;2023-02-16T16:40:40;100612.25;;;5.42;76.78
49341;BME280;35209;51.050;13.678;2023-02-16T16:45:34;100612.28;;;5.28;77.71
49341;BME280;35209;51.050;13.678;2023-02-16T16:50:37;100612.28;;;5.05;78.77
49341;BME280;35209;51.050;13.678;2023-02-16T16:55:40;100605.34;;;4.92;78.90
49341;BME280;35209;51.050;13.678;2023-02-16T17:00:44;100601.88;;;4.96;79.36
49341;BME280;35209;51.050;13.678;2023-02-16T17:05:46;100599.25;;;4.86;79.62
49341;BME280;35209;51.050;13.678;2023-02-16T17:10:47;100597.47;;;4.60;80.95
49341;BME280;35209;51.050;13.678;2023-02-16T17:15:59;100601.84;;;4.67;81.58
49341;BME280;35209;51.050;13.678;2023-02-16T17:21:03;100605.25;;;4.46;82.09
49341;BME280;35209;51.050;13.678;2023-02-16T17:26:06;100598.31;;;4.39;82.46
49341;BME280;35209;51.050;13.678;2023-02-16T17:31:09;100603.47;;;4.28;83.80
49341;BME280;35209;51.050;13.678;2023-02-16T17:36:13;100593.00;;;4.07;84.54
49341;BME280;35209;51.050;13.678;2023-02-16T17:41:27;100585.16;;;3.98;86.30
49341;BME280;35209;51.050;13.678;2023-02-16T17:46:30;100580.06;;;4.24;85.63
49341;BME280;35209;51.050;13.678;2023-02-16T17:51:32;100586.97;;;4.25;84.47
49341;BME280;35209;51.050;13.678;2023-02-16T17:56:37;100580.84;;;4.01;85.22
49341;BME280;35209;51.050;13.678;2023-02-16T18:01:43;100582.56;;;3.92;85.61
49341;BME280;35209;51.050;13.678;2023-02-16T18:06:45;100581.59;;;3.74;86.33
49341;BME280;35209;51.050;13.678;2023-02-16T18:11:49;100598.06;;;3.69;87.68
49341;BME280;35209;51.050;13.678;2023-02-16T18:16:52;100597.22;;;3.79;87.43
49341;BME280;35209;51.050;13.678;2023-02-16T18:21:54;100585.91;;;3.71;87.48
49341;BME280;35209;51.050;13.678;2023-02-16T18:26:56;100593.66;;;3.57;88.31
49341;BME280;35209;51.050;13.678;2023-02-16T18:32:01;100598.03;;;3.66;88.26
49341;BME280;35209;51.050;13.678;2023-02-16T18:37:03;100599.75;;;3.64;87.23
49341;BME280;35209;51.050;13.678;2023-02-16T18:42:05;100603.16;;;3.53;87.77
49341;BME280;35209;51.050;13.678;2023-02-16T18:47:10;100603.16;;;3.53;88.09
49341;BME280;35209;51.050;13.678;2023-02-16T18:52:12;100601.41;;;3.51;88.24
49341;BME280;35209;51.050;13.678;2023-02-16T18:57:14;100604.09;;;3.65;86.60
49341;BME280;35209;51.050;13.678;2023-02-16T19:02:15;100608.41;;;3.60;87.42
49341;BME280;35209;51.050;13.678;2023-02-16T19:07:17;100621.28;;;3.44;88.97
49341;BME280;35209;51.050;13.678;2023-02-16T19:12:19;100631.63;;;3.32;89.52
49341;BME280;35209;51.050;13.678;2023-02-16T19:17:21;100629.94;;;3.43;88.94
49341;BME280;35209;51.050;13.678;2023-02-16T19:22:23;100623.94;;;3.53;88.49
49341;BME280;35209;51.050;13.678;2023-02-16T19:27:25;100610.09;;;3.58;88.57
49341;BME280;35209;51.050;13.678;2023-02-16T19:32:28;100610.03;;;3.44;89.26
49341;BME280;35209;51.050;13.678;2023-02-16T19:37:30;100598.75;;;3.45;89.78
49341;BME280;35209;51.050;13.678;2023-02-16T19:42:32;100600.50;;;3.41;90.79
49341;BME280;35209;51.050;13.678;2023-02-16T19:47:34;100588.44;;;3.56;90.00
49341;BME280;35209;51.050;13.678;2023-02-16T19:52:36;100594.59;;;3.76;89.04
49341;BME280;35209;51.050;13.678;2023-02-16T19:57:39;100592.00;;;3.73;88.70
49341;BME280;35209;51.050;13.678;2023-02-16T20:02:42;100591.94;;;3.61;89.46
49341;BME280;35209;51.050;13.678;2023-02-16T20:07:45;100580.09;;;4.30;94.61
49341;BME280;35209;51.050;13.678;2023-02-16T20:12:47;100578.28;;;5.70;88.63
49341;BME280;35209;51.050;13.678;2023-02-16T20:17:58;100573.06;;;7.17;78.78
49341;BME280;35209;51.050;13.678;2023-02-16T20:23:01;100568.50;;;7.38;77.21
49341;BME280;35209;51.050;13.678;2023-02-16T20:28:03;100566.34;;;7.75;74.85
49341;BME280;35209;51.050;13.678;2023-02-16T20:33:05;100567.03;;;7.89;73.73
49341;BME280;35209;51.050;13.678;2023-02-16T20:38:06;100576.56;;;7.95;73.10
49341;BME280;35209;51.050;13.678;2023-02-16T20:43:08;100586.16;;;7.97;72.71
49341;BME280;35209;51.050;13.678;2023-02-16T20:48:10;100576.53;;;7.96;72.86
49341;BME280;35209;51.050;13.678;2023-02-16T20:53:13;100574.63;;;8.11;71.85
49341;BME280;35209;51.050;13.678;2023-02-16T20:58:15;100576.19;;;8.24;70.93
49341;BME280;35209;51.050;13.678;2023-02-16T21:03:17;100557.78;;;8.30;71.06
49341;BME280;35209;51.050;13.678;2023-02-16T21:08:19;100557.63;;;8.42;70.74
49341;BME280;35209;51.050;13.678;2023-02-16T21:13:21;100568.31;;;8.25;71.81
49341;BME280;35209;51.050;13.678;2023-02-16T21:18:25;100555.03;;;8.42;71.66
49341;BME280;35209;51.050;13.678;2023-02-16T21:23:28;100547.81;;;8.56;70.70
49341;BME280;35209;51.050;13.678;2023-02-16T21:28:30;100543.41;;;8.58;70.37
49341;BME280;35209;51.050;13.678;2023-02-16T21:33:32;100541.75;;;8.54;70.54
49341;BME280;35209;51.050;13.678;2023-02-16T21:38:35;100533.09;;;8.48;71.31
49341;BME280;35209;51.050;13.678;2023-02-16T21:43:37;100533.00;;;8.54;71.03
49341;BME280;35209;51.050;13.678;2023-02-16T21:48:39;100526.00;;;8.56;70.94
49341;BME280;35209;51.050;13.678;2023-02-16T21:53:53;100526.13;;;8.47;71.49
49341;BME280;35209;51.050;13.678;2023-02-16T21:58:56;100524.09;;;8.66;70.38
49341;BME280;35209;51.050;13.678;2023-02-16T22:03:58;100517.97;;;8.65;70.62
49341;BME280;35209;51.050;13.678;2023-02-16T22:09:05;100518.94;;;8.59;70.46
49341;BME280;35209;51.050;13.678;2023-02-16T22:14:07;100505.53;;;8.76;69.80
49341;BME280;35209;51.050;13.678;2023-02-16T22:19:13;100508.19;;;8.75;69.95
49341;BME280;35209;51.050;13.678;2023-02-16T22:24:16;100501.91;;;8.85;69.11
49341;BME280;35209;51.050;13.678;2023-02-16T22:29:18;100500.78;;;8.98;68.52
49341;BME280;35209;51.050;13.678;2023-02-16T22:34:20;100497.22;;;9.02;68.50
49341;BME280;35209;51.050;13.678;2023-02-16T22:39:22;100493.69;;;9.05;68.61
49341;BME280;35209;51.050;13.678;2023-02-16T22:44:24;100493.78;;;9.00;69.09
49341;BME280;35209;51.050;13.678;2023-02-16T22:49:26;100488.00;;;8.81;70.37
49341;BME280;35209;51.050;13.678;2023-02-16T22:54:28;100491.94;;;9.05;69.36
49341;BME280;35209;51.050;13.678;2023-02-16T22:59:29;100472.63;;;9.09;69.05
49341;BME280;35209;51.050;13.678;2023-02-16T23:04:31;100464.22;;;8.92;70.03
49341;BME280;35209;51.050;13.678;2023-02-16T23:09:33;100458.06;;;8.95;70.21
49341;BME280;35209;51.050;13.678;2023-02-16T23:14:36;100443.56;;;8.74;71.57
49341;BME280;35209;51.050;13.678;2023-02-16T23:19:38;100453.94;;;8.80;70.79
49341;BME280;35209;51.050;13.678;2023-02-16T23:24:40;100455.00;;;8.70;71.82
49341;BME280;35209;51.050;13.678;2023-02-16T23:29:42;100446.84;;;8.87;70.80
49341;BME280;35209;51.050;13.678;2023-02-16T23:34:43;100438.91;;;8.90;70.45
49341;BME280;35209;51.050;13.678;2023-02-16T23:39:45;100441.78;;;8.76;71.33
49341;BME280;35209;51.050;13.678;2023-02-16T23:44:47;100427.53;;;8.91;70.60
49341;BME280;35209;51.050;13.678;2023-02-16T23:49:49;100416.84;;;9.01;69.89
49341;BME280;35209;51.050;13.678;2023-02-16T23:54:50;100405.53;;;8.99;70.00
49341;BME280;35209;51.050;13.678;2023-02-16T23:59:52;100398.88;;;8.81;71.03
